sensor_id;sensor_type;location;lat;lon;timestamp;pressure;altitude;pressure_sealevel;temperature;humidity
5872;BME280;2962;51.312;7.378;2023-01-16T00:01:13;95627.53;;;2.20;100.00
5872;BME280;2962;51.312;7.378;2023-01-16T00:03:39;95617.97;;;2.23;100.00
5872;BME280;2962;51.312;7.378;2023-01-16T00:06:04;95624.06;;;2.19;100.00
5872;BME280;2962;51.312;7.378;2023-01-16T00:08:30;95615.66;;;2.21;100.00
5872;BME280;2962;51.312;7.378;2023-01-16T00:10:55;95615.53;;;2.14;100.00
5872;BME280;2962;51.312;7.378;2023-01-16T00:13:20;95627.59;;;2.01;100.00
5872;BME280;2962;51.312;7.378;2023-01-16T00:15:48;95609.19;;;2.03;100.00
5872;BME280;2962;51.312;7.378;2023-01-16T00:18:14;95610.09;;;2.10;100.00
5872;BME280;2962;51.312;7.378;2023-01-16T00:20:39;95594.69;;;2.07;100.00
5872;BME280;2962;51.312;7.378;2023-01-16T00:23:05;95612.44;;;2.12;100.00
5872;BME280;2962;51.312;7.378;2023-01-16T00:25:30;95579.78;;;2.10;100.00
5872;BME280;2962;51.312;7.378;2023-01-16T00:27:55;95584.00;;;2.11;100.00
5872;BME280;2962;51.312;7.378;2023-01-16T00:30:20;95585.50;;;2.08;100.00
5872;BME280;2962;51.312;7.378;2023-01-16T00:32:46;95572.97;;;1.93;100.00
5872;BME280;2962;51.312;7.378;2023-01-16T00:35:12;95603.53;;;1.85;100.00
5872;BME280;2962;51.312;7.378;2023-01-16T00:37:37;95595.47;;;1.85;100.00
5872;BME280;2962;51.312;7.378;2023-01-16T00:40:03;95563.47;;;1.76;100.00
5872;BME280;2962;51.312;7.378;2023-01-16T00:42:28;95545.25;;;1.43;100.00
5872;BME280;2962;51.312;7.378;2023-01-16T00:44:53;95551.09;;;1.49;100.00
5872;BME280;2962;51.312;7.378;2023-01-16T00:47:19;95575.81;;;1.38;100.00
5872;BME280;2962;51.312;7.378;2023-01-16T00:49:44;95564.88;;;1.28;100.00
5872;BME280;2962;51.312;7.378;2023-01-16T00:52:09;95552.59;;;1.27;100.00
5872;BME280;2962;51.312;7.378;2023-01-16T00:54:34;95560.69;;;1.30;100.00
5872;BME280;2962;51.312;7.378;2023-01-16T00:57:00;95570.09;;;1.20;100.00
5872;BME280;2962;51.312;7.378;2023-01-16T00:59:25;95554.22;;;1.12;100.00
5872;BME280;2962;51.312;7.378;2023-01-16T01:01:50;95548.97;;;1.19;100.00
5872;BME280;2962;51.312;7.378;2023-01-16T01:04:15;95539.69;;;1.13;100.00
5872;BME280;2962;51.312;7.378;2023-01-16T01:06:42;95543.22;;;1.17;100.00
5872;BME280;2962;51.312;7.378;2023-01-16T01:09:07;95527.13;;;1.17;100.00
5872;BME280;2962;51.312;7.378;2023-01-16T01:11:32;95532.03;;;1.15;100.00
5872;BME280;2962;51.312;7.378;2023-01-16T01:13:58;95524.81;;;1.15;100.00
5872;BME280;2962;51.312;7.378;2023-01-16T01:16:23;95523.22;;;1.14;100.00
5872;BME280;2962;51.312;7.378;2023-01-16T01:18:49;95515.00;;;1.23;100.00
5872;BME280;2962;51.312;7.378;2023-01-16T01:21:14;95503.13;;;1.24;100.00
5872;BME280;2962;51.312;7.378;2023-01-16T01:23:39;95477.78;;;1.21;100.00
5872;BME280;2962;51.312;7.378;2023-01-16T01:26:09;95493.94;;;1.25;100.00
5872;BME280;2962;51.312;7.378;2023-01-16T01:28:36;95490.09;;;1.26;100.00
5872;BME280;2962;51.312;7.378;2023-01-16T01:31:03;95484.53;;;1.35;100.00
5872;BME280;2962;51.312;7.378;2023-01-16T01:33:29;95485.72;;;1.37;100.00
5872;BME280;2962;51.312;7.378;2023-01-16T01:35:54;95480.53;;;1.48;100.00
5872;BME280;2962;51.312;7.378;2023-01-16T01:38:19;95469.88;;;1.52;100.00
5872;BME280;2962;51.312;7.378;2023-01-16T01:40:44;95452.81;;;1.40;100.00
5872;BME280;2962;51.312;7.378;2023-01-16T01:43:14;95469.75;;;1.44;100.00
5872;BME280;2962;51.312;7.378;2023-01-16T01:45:42;95459.44;;;1.46;100.00
5872;BME280;2962;51.312;7.378;2023-01-16T01:48:20;95467.59;;;1.54;100.00
5872;BME280;2962;51.312;7.378;2023-01-16T01:55:55;95436.25;;;1.58;100.00
5872;BME280;2962;51.312;7.378;2023-01-16T01:58:23;95440.94;;;1.64;100.00
5872;BME280;2962;51.312;7.378;2023-01-16T02:00:53;95446.31;;;1.64;100.00
5872;BME280;2962;51.312;7.378;2023-01-16T02:03:34;95435.28;;;1.69;100.00
5872;BME280;2962;51.312;7.378;2023-01-16T02:06:06;95433.38;;;1.70;100.00
5872;BME280;2962;51.312;7.378;2023-01-16T02:08:33;95424.50;;;1.66;100.00
5872;BME280;2962;51.312;7.378;2023-01-16T02:11:08;95422.91;;;1.65;100.00
5872;BME280;2962;51.312;7.378;2023-01-16T02:13:36;95403.34;;;1.64;100.00
5872;BME280;2962;51.312;7.378;2023-01-16T02:16:03;95414.88;;;1.65;100.00
5872;BME280;2962;51.312;7.378;2023-01-16T02:18:47;95408.44;;;1.69;100.00
5872;BME280;2962;51.312;7.378;2023-01-16T02:21:52;95387.69;;;1.66;100.00
5872;BME280;2962;51.312;7.378;2023-01-16T02:24:39;95385.34;;;1.65;100.00
5872;BME280;2962;51.312;7.378;2023-01-16T02:32:26;95360.06;;;1.66;100.00
5872;BME280;2962;51.312;7.378;2023-01-16T02:35:20;95339.31;;;1.63;100.00
5872;BME280;2962;51.312;7.378;2023-01-16T02:37:56;95339.38;;;1.66;100.00
5872;BME280;2962;51.312;7.378;2023-01-16T02:48:50;95324.94;;;1.78;100.00
5872;BME280;2962;51.312;7.378;2023-01-16T02:54:23;95301.41;;;1.68;100.00
5872;BME280;2962;51.312;7.378;2023-01-16T02:57:13;95298.72;;;1.68;100.00
5872;BME280;2962;51.312;7.378;2023-01-16T02:59:41;95312.91;;;1.68;100.00
5872;BME280;2962;51.312;7.378;2023-01-16T03:02:07;95293.34;;;1.68;100.00
5872;BME280;2962;51.312;7.378;2023-01-16T03:10:03;95278.97;;;1.83;100.00
5872;BME280;2962;51.312;7.378;2023-01-16T03:15:52;95285.34;;;1.71;100.00
5872;BME280;2962;51.312;7.378;2023-01-16T03:18:34;95278.84;;;1.73;100.00
5872;BME280;2962;51.312;7.378;2023-01-16T03:21:11;95292.59;;;1.67;100.00
5872;BME280;2962;51.312;7.378;2023-01-16T03:24:03;95277.25;;;1.68;100.00
5872;BME280;2962;51.312;7.378;2023-01-16T03:26:36;95260.31;;;1.64;100.00
5872;BME280;2962;51.312;7.378;2023-01-16T03:29:17;95240.00;;;1.63;100.00
5872;BME280;2962;51.312;7.378;2023-01-16T03:31:54;95253.81;;;1.65;100.00
5872;BME280;2962;51.312;7.378;2023-01-16T03:34:42;95249.53;;;1.60;100.00
5872;BME280;2962;51.312;7.378;2023-01-16T03:39:53;95237.94;;;1.53;100.00
5872;BME280;2962;51.312;7.378;2023-01-16T03:42:27;95233.78;;;1.55;100.00
5872;BME280;2962;51.312;7.378;2023-01-16T03:44:59;95233.41;;;1.57;100.00
5872;BME280;2962;51.312;7.378;2023-01-16T03:47:32;95228.84;;;1.61;100.00
5872;BME280;2962;51.312;7.378;2023-01-16T03:50:02;95202.66;;;1.51;100.00
5872;BME280;2962;51.312;7.378;2023-01-16T03:52:33;95212.63;;;1.50;100.00
5872;BME280;2962;51.312;7.378;2023-01-16T03:55:13;95208.03;;;1.51;100.00
5872;BME280;2962;51.312;7.378;2023-01-16T03:58:03;95195.28;;;1.44;100.00
5872;BME280;2962;51.312;7.378;2023-01-16T04:00:31;95199.28;;;1.57;100.00
5872;BME280;2962;51.312;7.378;2023-01-16T04:03:14;95188.16;;;1.55;100.00
5872;BME280;2962;51.312;7.378;2023-01-16T04:05:47;95188.16;;;1.55;100.00
5872;BME280;2962;51.312;7.378;2023-01-16T04:08:19;95171.63;;;1.53;100.00
5872;BME280;2962;51.312;7.378;2023-01-16T04:10:49;95167.88;;;1.58;100.00
5872;BME280;2962;51.312;7.378;2023-01-16T04:13:22;95157.47;;;1.56;100.00
5872;BME280;2962;51.312;7.378;2023-01-16T04:15:52;95153.00;;;1.67;100.00
5872;BME280;2962;51.312;7.378;2023-01-16T04:18:21;95157.19;;;1.65;100.00
5872;BME280;2962;51.312;7.378;2023-01-16T04:20:48;95159.56;;;1.70;100.00
5872;BME280;2962;51.312;7.378;2023-01-16T04:23:14;95138.41;;;1.65;100.00
5872;BME280;2962;51.312;7.378;2023-01-16T04:25:41;95140.75;;;1.66;100.00
5872;BME280;2962;51.312;7.378;2023-01-16T04:28:06;95123.00;;;1.58;100.00
5872;BME280;2962;51.312;7.378;2023-01-16T04:30:32;95106.84;;;1.51;100.00
5872;BME280;2962;51.312;7.378;2023-01-16T04:33:01;95099.22;;;1.57;100.00
5872;BME280;2962;51.312;7.378;2023-01-16T04:35:26;95102.28;;;1.55;100.00
5872;BME280;2962;51.312;7.378;2023-01-16T04:37:51;95083.06;;;1.53;100.00
5872;BME280;2962;51.312;7.378;2023-01-16T04:40:17;95086.19;;;1.55;100.00
5872;BME280;2962;51.312;7.378;2023-01-16T04:42:42;95079.63;;;1.53;100.00
5872;BME280;2962;51.312;7.378;2023-01-16T04:45:08;95068.59;;;1.61;100.00
5872;BME280;2962;51.312;7.378;2023-01-16T04:47:33;95057.13;;;1.64;100.00
5872;BME280;2962;51.312;7.378;2023-01-16T04:49:58;95051.41;;;1.66;100.00
5872;BME280;2962;51.312;7.378;2023-01-16T04:52:24;95018.81;;;1.67;100.00
5872;BME280;2962;51.312;7.378;2023-01-16T04:54:49;95024.09;;;1.60;100.00
5872;BME280;2962;51.312;7.378;2023-01-16T04:57:14;95025.69;;;1.65;100.00
5872;BME280;2962;51.312;7.378;2023-01-16T04:59:40;95005.28;;;1.57;100.00
5872;BME280;2962;51.312;7.378;2023-01-16T05:02:05;94999.13;;;1.53;100.00
5872;BME280;2962;51.312;7.378;2023-01-16T05:04:30;94993.44;;;1.61;100.00
5872;BME280;2962;51.312;7.378;2023-01-16T05:06:55;94981.91;;;1.57;100.00
5872;BME280;2962;51.312;7.378;2023-01-16T05:09:21;94968.88;;;1.56;100.00
5872;BME280;2962;51.312;7.378;2023-01-16T05:11:46;94975.38;;;1.55;100.00
5872;BME280;2962;51.312;7.378;2023-01-16T05:14:11;94975.03;;;1.60;100.00
5872;BME280;2962;51.312;7.378;2023-01-16T05:16:38;94962.75;;;1.59;100.00
5872;BME280;2962;51.312;7.378;2023-01-16T05:19:06;94957.78;;;1.61;100.00
5872;BME280;2962;51.312;7.378;2023-01-16T05:21:32;94965.03;;;1.57;100.00
5872;BME280;2962;51.312;7.378;2023-01-16T05:23:57;94940.88;;;1.57;100.00
5872;BME280;2962;51.312;7.378;2023-01-16T05:26:23;94913.72;;;1.62;100.00
5872;BME280;2962;51.312;7.378;2023-01-16T05:28:48;94932.53;;;1.65;100.00
5872;BME280;2962;51.312;7.378;2023-01-16T05:31:13;94904.91;;;1.65;100.00
5872;BME280;2962;51.312;7.378;2023-01-16T05:33:39;94888.72;;;1.51;100.00
5872;BME280;2962;51.312;7.378;2023-01-16T05:36:04;94911.03;;;1.62;100.00
5872;BME280;2962;51.312;7.378;2023-01-16T05:38:30;94906.03;;;1.60;100.00
5872;BME280;2962;51.312;7.378;2023-01-16T05:40:55;94909.16;;;1.66;100.00
5872;BME280;2962;51.312;7.378;2023-01-16T05:43:20;94888.09;;;1.71;100.00
5872;BME280;2962;51.312;7.378;2023-01-16T05:45:46;94906.09;;;1.71;100.00
5872;BME280;2962;51.312;7.378;2023-01-16T05:48:11;94870.44;;;1.67;100.00
5872;BME280;2962;51.312;7.378;2023-01-16T05:50:37;94862.34;;;1.63;100.00
5872;BME280;2962;51.312;7.378;2023-01-16T05:53:02;94888.53;;;1.77;100.00
5872;BME280;2962;51.312;7.378;2023-01-16T05:55:28;94876.63;;;1.78;100.00
5872;BME280;2962;51.312;7.378;2023-01-16T05:57:53;94856.72;;;1.83;100.00
5872;BME280;2962;51.312;7.378;2023-01-16T06:00:19;94859.84;;;1.88;100.00
5872;BME280;2962;51.312;7.378;2023-01-16T06:02:44;94869.44;;;1.93;100.00
5872;BME280;2962;51.312;7.378;2023-01-16T06:05:12;94829.94;;;1.97;100.00
5872;BME280;2962;51.312;7.378;2023-01-16T06:07:37;94836.50;;;2.03;100.00
5872;BME280;2962;51.312;7.378;2023-01-16T06:10:03;94811.91;;;1.98;100.00
5872;BME280;2962;51.312;7.378;2023-01-16T06:12:28;94825.34;;;1.98;100.00
5872;BME280;2962;51.312;7.378;2023-01-16T06:14:53;94823.84;;;2.11;100.00
5872;BME280;2962;51.312;7.378;2023-01-16T06:17:19;94794.09;;;2.62;100.00
5872;BME280;2962;51.312;7.378;2023-01-16T06:19:45;94788.31;;;2.57;100.00
5872;BME280;2962;51.312;7.378;2023-01-16T06:22:15;94809.34;;;2.30;100.00
5872;BME280;2962;51.312;7.378;2023-01-16T06:24:40;94795.91;;;2.30;100.00
5872;BME280;2962;51.312;7.378;2023-01-16T06:27:05;94788.22;;;2.21;100.00
5872;BME280;2962;51.312;7.378;2023-01-16T06:29:31;94768.66;;;2.17;100.00
5872;BME280;2962;51.312;7.378;2023-01-16T06:31:56;94752.91;;;2.12;100.00
5872;BME280;2962;51.312;7.378;2023-01-16T06:34:22;94758.28;;;2.15;100.00
5872;BME280;2962;51.312;7.378;2023-01-16T06:36:47;94768.25;;;2.15;100.00
5872;BME280;2962;51.312;7.378;2023-01-16T06:39:16;94787.03;;;2.08;100.00
5872;BME280;2962;51.312;7.378;2023-01-16T06:41:42;94729.09;;;2.10;100.00
5872;BME280;2962;51.312;7.378;2023-01-16T06:44:07;94777.81;;;2.09;100.00
5872;BME280;2962;51.312;7.378;2023-01-16T06:46:33;94763.66;;;2.12;100.00
5872;BME280;2962;51.312;7.378;2023-01-16T06:48:58;94768.22;;;2.11;100.00
5872;BME280;2962;51.312;7.378;2023-01-16T06:51:23;94763.66;;;2.12;100.00
5872;BME280;2962;51.312;7.378;2023-01-16T06:53:48;94758.63;;;2.10;100.00
5872;BME280;2962;51.312;7.378;2023-01-16T06:56:14;94739.84;;;2.14;100.00
5872;BME280;2962;51.312;7.378;2023-01-16T06:58:39;94722.22;;;2.16;100.00
5872;BME280;2962;51.312;7.378;2023-01-16T07:01:04;94714.53;;;2.15;100.00
5872;BME280;2962;51.312;7.378;2023-01-16T07:03:30;94703.78;;;2.15;100.00
5872;BME280;2962;51.312;7.378;2023-01-16T07:05:55;94693.81;;;2.12;100.00
5872;BME280;2962;51.312;7.378;2023-01-16T07:08:21;94669.63;;;2.05;100.00
5872;BME280;2962;51.312;7.378;2023-01-16T07:10:46;94663.88;;;2.17;100.00
5872;BME280;2962;51.312;7.378;2023-01-16T07:13:11;94663.09;;;2.09;100.00
5872;BME280;2962;51.312;7.378;2023-01-16T07:15:37;94658.50;;;2.13;100.00
5872;BME280;2962;51.312;7.378;2023-01-16T07:18:21;94660.03;;;2.11;100.00
5872;BME280;2962;51.312;7.378;2023-01-16T07:21:10;94650.44;;;2.13;100.00
5872;BME280;2962;51.312;7.378;2023-01-16T07:24:07;94625.88;;;2.11;100.00
5872;BME280;2962;51.312;7.378;2023-01-16T07:26:34;94631.25;;;2.65;100.00
5872;BME280;2962;51.312;7.378;2023-01-16T07:29:03;94613.59;;;2.67;100.00
5872;BME280;2962;51.312;7.378;2023-01-16T07:31:29;94610.38;;;3.26;100.00
5872;BME280;2962;51.312;7.378;2023-01-16T07:33:56;94605.13;;;2.76;100.00
5872;BME280;2962;51.312;7.378;2023-01-16T07:36:21;94600.19;;;2.50;100.00
5872;BME280;2962;51.312;7.378;2023-01-16T07:38:47;94584.09;;;2.39;100.00
5872;BME280;2962;51.312;7.378;2023-01-16T07:41:12;94595.59;;;2.32;100.00
5872;BME280;2962;51.312;7.378;2023-01-16T07:43:39;94574.88;;;2.29;100.00
5872;BME280;2962;51.312;7.378;2023-01-16T07:46:04;94546.84;;;2.27;100.00
5872;BME280;2962;51.312;7.378;2023-01-16T07:48:29;94575.25;;;2.20;100.00
5872;BME280;2962;51.312;7.378;2023-01-16T07:50:56;94555.69;;;2.27;100.00
5872;BME280;2962;51.312;7.378;2023-01-16T07:53:24;94538.81;;;2.19;100.00
5872;BME280;2962;51.312;7.378;2023-01-16T07:55:51;94498.13;;;2.21;100.00
5872;BME280;2962;51.312;7.378;2023-01-16T07:58:17;94548.41;;;2.20;100.00
5872;BME280;2962;51.312;7.378;2023-01-16T08:00:43;94526.16;;;2.20;100.00
5872;BME280;2962;51.312;7.378;2023-01-16T08:03:09;94533.03;;;2.25;100.00
5872;BME280;2962;51.312;7.378;2023-01-16T08:05:34;94518.84;;;2.20;100.00
5872;BME280;2962;51.312;7.378;2023-01-16T08:08:00;94512.31;;;2.25;100.00
5872;BME280;2962;51.312;7.378;2023-01-16T08:10:25;94511.56;;;2.28;100.00
5872;BME280;2962;51.312;7.378;2023-01-16T08:12:50;94485.84;;;2.24;100.00
5872;BME280;2962;51.312;7.378;2023-01-16T08:15:16;94489.66;;;2.23;100.00
5872;BME280;2962;51.312;7.378;2023-01-16T08:17:41;94472.44;;;2.20;100.00
5872;BME280;2962;51.312;7.378;2023-01-16T08:20:08;94445.16;;;2.22;100.00
5872;BME280;2962;51.312;7.378;2023-01-16T08:22:33;94444.41;;;2.14;100.00
5872;BME280;2962;51.312;7.378;2023-01-16T08:24:58;94456.69;;;2.18;100.00
5872;BME280;2962;51.312;7.378;2023-01-16T08:27:24;94440.56;;;2.15;100.00
5872;BME280;2962;51.312;7.378;2023-01-16T08:29:49;94421.41;;;2.16;100.00
5872;BME280;2962;51.312;7.378;2023-01-16T08:32:14;94425.25;;;2.12;100.00
5872;BME280;2962;51.312;7.378;2023-01-16T08:34:41;94417.56;;;2.07;100.00
5872;BME280;2962;51.312;7.378;2023-01-16T08:37:06;94404.56;;;2.02;100.00
5872;BME280;2962;51.312;7.378;2023-01-16T08:39:35;94381.16;;;2.06;100.00
5872;BME280;2962;51.312;7.378;2023-01-16T08:42:00;94386.91;;;2.04;100.00
5872;BME280;2962;51.312;7.378;2023-01-16T08:44:44;94386.50;;;2.09;100.00
5872;BME280;2962;51.312;7.378;2023-01-16T08:47:28;94360.06;;;2.01;100.00
5872;BME280;2962;51.312;7.378;2023-01-16T08:50:15;94392.63;;;2.10;100.00
5872;BME280;2962;51.312;7.378;2023-01-16T08:53:00;94366.94;;;2.16;100.00
5872;BME280;2962;51.312;7.378;2023-01-16T08:55:25;94359.22;;;2.18;100.00
5872;BME280;2962;51.312;7.378;2023-01-16T08:57:50;94349.25;;;2.22;100.00
5872;BME280;2962;51.312;7.378;2023-01-16T09:00:16;94343.47;;;2.27;100.00
5872;BME280;2962;51.312;7.378;2023-01-16T09:02:44;94376.06;;;2.29;100.00
5872;BME280;2962;51.312;7.378;2023-01-16T09:05:11;94366.09;;;2.26;100.00
5872;BME280;2962;51.312;7.378;2023-01-16T09:07:37;94374.56;;;2.28;100.00
5872;BME280;2962;51.312;7.378;2023-01-16T09:10:03;94343.84;;;2.29;100.00
5872;BME280;2962;51.312;7.378;2023-01-16T09:12:28;94309.69;;;2.26;100.00
5872;BME280;2962;51.312;7.378;2023-01-16T09:15:12;94307.81;;;2.23;100.00
5872;BME280;2962;51.312;7.378;2023-01-16T09:17:37;94332.75;;;2.20;100.00
5872;BME280;2962;51.312;7.378;2023-01-16T09:20:03;94275.97;;;2.18;100.00
5872;BME280;2962;51.312;7.378;2023-01-16T09:22:29;94321.63;;;2.18;100.00
5872;BME280;2962;51.312;7.378;2023-01-16T09:24:54;94340.03;;;2.23;100.00
5872;BME280;2962;51.312;7.378;2023-01-16T09:27:20;94329.31;;;2.16;100.00
5872;BME280;2962;51.312;7.378;2023-01-16T09:29:45;94308.63;;;2.09;100.00
5872;BME280;2962;51.312;7.378;2023-01-16T09:32:10;94307.47;;;2.10;100.00
5872;BME280;2962;51.312;7.378;2023-01-16T09:34:36;94307.47;;;2.07;100.00
5872;BME280;2962;51.312;7.378;2023-01-16T09:37:02;94287.19;;;1.99;100.00
5872;BME280;2962;51.312;7.378;2023-01-16T09:39:28;94274.16;;;1.97;100.00
5872;BME280;2962;51.312;7.378;2023-01-16T09:44:54;94305.66;;;1.82;100.00
5872;BME280;2962;51.312;7.378;2023-01-16T09:47:23;94299.13;;;1.83;100.00
5872;BME280;2962;51.312;7.378;2023-01-16T09:49:53;94294.94;;;1.75;100.00
5872;BME280;2962;51.312;7.378;2023-01-16T09:52:24;94288.44;;;1.69;100.00
5872;BME280;2962;51.312;7.378;2023-01-16T09:55:41;94247.06;;;1.66;100.00
5872;BME280;2962;51.312;7.378;2023-01-16T09:58:27;94304.94;;;1.64;100.00
5872;BME280;2962;51.312;7.378;2023-01-16T10:01:06;94290.34;;;1.65;100.00
5872;BME280;2962;51.312;7.378;2023-01-16T10:03:32;94298.81;;;1.60;100.00
5872;BME280;2962;51.312;7.378;2023-01-16T10:11:26;94220.97;;;1.67;100.00
5872;BME280;2962;51.312;7.378;2023-01-16T10:16:36;94199.84;;;1.76;100.00
5872;BME280;2962;51.312;7.378;2023-01-16T10:21:47;94230.91;;;1.77;100.00
5872;BME280;2962;51.312;7.378;2023-01-16T10:24:35;94230.53;;;1.75;100.00
5872;BME280;2962;51.312;7.378;2023-01-16T10:30:14;94245.88;;;1.75;100.00
5872;BME280;2962;51.312;7.378;2023-01-16T10:37:36;94172.94;;;1.90;100.00
5872;BME280;2962;51.312;7.378;2023-01-16T10:40:24;94241.97;;;1.90;100.00
5872;BME280;2962;51.312;7.378;2023-01-16T10:43:14;94195.91;;;1.95;100.00
5872;BME280;2962;51.312;7.378;2023-01-16T10:46:12;94189.00;;;1.98;100.00
5872;BME280;2962;51.312;7.378;2023-01-16T10:48:58;94170.44;;;2.21;100.00
5872;BME280;2962;51.312;7.378;2023-01-16T10:51:42;94165.50;;;2.16;100.00
5872;BME280;2962;51.312;7.378;2023-01-16T10:54:07;94175.50;;;2.12;100.00
5872;BME280;2962;51.312;7.378;2023-01-16T10:56:33;94167.06;;;2.13;100.00
5872;BME280;2962;51.312;7.378;2023-01-16T10:59:00;94151.28;;;2.19;100.00
5872;BME280;2962;51.312;7.378;2023-01-16T11:01:26;94154.38;;;2.14;100.00
5872;BME280;2962;51.312;7.378;2023-01-16T11:03:57;94177.38;;;2.18;100.00
5872;BME280;2962;51.312;7.378;2023-01-16T11:06:26;94163.09;;;2.32;100.00
5872;BME280;2962;51.312;7.378;2023-01-16T11:09:23;94143.88;;;2.34;100.00
5872;BME280;2962;51.312;7.378;2023-01-16T11:11:50;94124.31;;;2.33;100.00
5872;BME280;2962;51.312;7.378;2023-01-16T11:14:36;94095.94;;;2.32;100.00
5872;BME280;2962;51.312;7.378;2023-01-16T11:20:27;94122.69;;;2.47;100.00
5872;BME280;2962;51.312;7.378;2023-01-16T11:23:00;94068.91;;;2.50;100.00
5872;BME280;2962;51.312;7.378;2023-01-16T11:25:29;94105.34;;;2.55;100.00
5872;BME280;2962;51.312;7.378;2023-01-16T11:27:57;94091.47;;;2.60;100.00
5872;BME280;2962;51.312;7.378;2023-01-16T11:30:29;94071.78;;;2.70;100.00
5872;BME280;2962;51.312;7.378;2023-01-16T11:32:56;94094.44;;;2.69;100.00
5872;BME280;2962;51.312;7.378;2023-01-16T11:35:29;94093.56;;;2.79;100.00
5872;BME280;2962;51.312;7.378;2023-01-16T11:37:56;94073.69;;;2.73;100.00
5872;BME280;2962;51.312;7.378;2023-01-16T11:40:23;94039.13;;;2.72;100.00
5872;BME280;2962;51.312;7.378;2023-01-16T11:42:56;94064.56;;;2.63;100.00
5872;BME280;2962;51.312;7.378;2023-01-16T11:45:45;94076.78;;;2.68;100.00
5872;BME280;2962;51.312;7.378;2023-01-16T11:48:40;94062.66;;;2.60;100.00
5872;BME280;2962;51.312;7.378;2023-01-16T11:51:13;94061.09;;;2.63;100.00
5872;BME280;2962;51.312;7.378;2023-01-16T11:53:38;94036.72;;;2.47;100.00
5872;BME280;2962;51.312;7.378;2023-01-16T11:56:23;94065.09;;;2.48;100.00
5872;BME280;2962;51.312;7.378;2023-01-16T12:04:37;94073.72;;;2.28;100.00
5872;BME280;2962;51.312;7.378;2023-01-16T12:07:17;94049.13;;;2.30;100.00
5872;BME280;2962;51.312;7.378;2023-01-16T12:10:00;94056.47;;;2.22;100.00
5872;BME280;2962;51.312;7.378;2023-01-16T12:12:33;94044.59;;;2.23;100.00
5872;BME280;2962;51.312;7.378;2023-01-16T12:15:22;94021.56;;;2.22;100.00
5872;BME280;2962;51.312;7.378;2023-01-16T12:18:03;94011.09;;;2.35;100.00
5872;BME280;2962;51.312;7.378;2023-01-16T12:20:48;93984.78;;;2.53;100.00
5872;BME280;2962;51.312;7.378;2023-01-16T12:23:28;94003.56;;;2.57;100.00
5872;BME280;2962;51.312;7.378;2023-01-16T12:26:19;93989.59;;;2.69;100.00
5872;BME280;2962;51.312;7.378;2023-01-16T12:34:41;93965.13;;;2.63;100.00
5872;BME280;2962;51.312;7.378;2023-01-16T12:42:55;93965.75;;;2.40;100.00
5872;BME280;2962;51.312;7.378;2023-01-16T12:45:51;93956.94;;;2.40;100.00
5872;BME280;2962;51.312;7.378;2023-01-16T12:51:50;93920.97;;;2.30;100.00
5872;BME280;2962;51.312;7.378;2023-01-16T12:57:27;93913.41;;;2.52;100.00
5872;BME280;2962;51.312;7.378;2023-01-16T13:00:02;93906.91;;;2.50;100.00
5872;BME280;2962;51.312;7.378;2023-01-16T13:02:37;93881.75;;;2.36;100.00
5872;BME280;2962;51.312;7.378;2023-01-16T13:05:09;93903.28;;;2.33;100.00
5872;BME280;2962;51.312;7.378;2023-01-16T13:07:44;93893.88;;;2.17;100.00
5872;BME280;2962;51.312;7.378;2023-01-16T13:10:19;93884.84;;;2.01;100.00
5872;BME280;2962;51.312;7.378;2023-01-16T13:13:12;93873.81;;;1.91;100.00
5872;BME280;2962;51.312;7.378;2023-01-16T13:15:51;93891.47;;;1.92;100.00
5872;BME280;2962;51.312;7.378;2023-01-16T13:18:42;93877.38;;;1.81;100.00
5872;BME280;2962;51.312;7.378;2023-01-16T13:21:14;93869.38;;;1.78;100.00
5872;BME280;2962;51.312;7.378;2023-01-16T13:26:27;93866.34;;;1.72;100.00
5872;BME280;2962;51.312;7.378;2023-01-16T13:29:10;93861.72;;;1.73;100.00
5872;BME280;2962;51.312;7.378;2023-01-16T13:31:50;93838.78;;;1.68;100.00
5872;BME280;2962;51.312;7.378;2023-01-16T13:34:32;93847.47;;;1.79;100.00
5872;BME280;2962;51.312;7.378;2023-01-16T13:42:13;93813.13;;;1.67;100.00
5872;BME280;2962;51.312;7.378;2023-01-16T13:44:43;93823.41;;;1.72;100.00
5872;BME280;2962;51.312;7.378;2023-01-16T13:47:32;93816.97;;;1.66;100.00
5872;BME280;2962;51.312;7.378;2023-01-16T13:50:27;93797.75;;;1.71;100.00
5872;BME280;2962;51.312;7.378;2023-01-16T13:53:00;93798.47;;;1.75;100.00
5872;BME280;2962;51.312;7.378;2023-01-16T13:55:32;93792.81;;;1.66;100.00
5872;BME280;2962;51.312;7.378;2023-01-16T13:58:22;93801.50;;;1.77;100.00
5872;BME280;2962;51.312;7.378;2023-01-16T14:01:01;93777.06;;;1.68;100.00
5872;BME280;2962;51.312;7.378;2023-01-16T14:03:31;93770.44;;;1.76;100.00
5872;BME280;2962;51.312;7.378;2023-01-16T14:06:17;93775.75;;;1.83;100.00
5872;BME280;2962;51.312;7.378;2023-01-16T14:11:35;93770.22;;;1.98;100.00
5872;BME280;2962;51.312;7.378;2023-01-16T14:17:29;93737.19;;;2.01;100.00
5872;BME280;2962;51.312;7.378;2023-01-16T14:20:52;93772.41;;;2.06;100.00
5872;BME280;2962;51.312;7.378;2023-01-16T14:23:31;93771.63;;;2.06;100.00
5872;BME280;2962;51.312;7.378;2023-01-16T14:26:32;93762.06;;;2.05;100.00
5872;BME280;2962;51.312;7.378;2023-01-16T14:29:00;93761.69;;;2.03;100.00
5872;BME280;2962;51.312;7.378;2023-01-16T14:31:35;93723.09;;;1.93;100.00
5872;BME280;2962;51.312;7.378;2023-01-16T14:34:01;93741.13;;;1.92;100.00
5872;BME280;2962;51.312;7.378;2023-01-16T14:36:28;93741.22;;;1.85;100.00
5872;BME280;2962;51.312;7.378;2023-01-16T14:38:54;93725.91;;;1.82;100.00
5872;BME280;2962;51.312;7.378;2023-01-16T14:41:28;93749.63;;;1.87;100.00
5872;BME280;2962;51.312;7.378;2023-01-16T14:44:16;93780.00;;;1.81;100.00
5872;BME280;2962;51.312;7.378;2023-01-16T14:50:13;93723.69;;;1.77;100.00
5872;BME280;2962;51.312;7.378;2023-01-16T14:58:35;93717.00;;;1.58;100.00
5872;BME280;2962;51.312;7.378;2023-01-16T15:01:02;93719.38;;;1.53;100.00
5872;BME280;2962;51.312;7.378;2023-01-16T15:03:58;93733.94;;;1.52;100.00
5872;BME280;2962;51.312;7.378;2023-01-16T15:06:27;93709.75;;;1.55;100.00
5872;BME280;2962;51.312;7.378;2023-01-16T15:08:58;93704.00;;;1.57;100.00
5872;BME280;2962;51.312;7.378;2023-01-16T15:11:26;93696.72;;;1.54;100.00
5872;BME280;2962;51.312;7.378;2023-01-16T15:14:10;93688.38;;;1.48;100.00
5872;BME280;2962;51.312;7.378;2023-01-16T15:17:13;93703.88;;;1.67;100.00
5872;BME280;2962;51.312;7.378;2023-01-16T15:22:53;93683.47;;;1.74;100.00
5872;BME280;2962;51.312;7.378;2023-01-16T15:25:52;93675.34;;;1.81;100.00
5872;BME280;2962;51.312;7.378;2023-01-16T15:31:19;93644.94;;;1.87;100.00
5872;BME280;2962;51.312;7.378;2023-01-16T15:34:04;93647.19;;;1.92;100.00
5872;BME280;2962;51.312;7.378;2023-01-16T15:44:57;93640.56;;;2.01;100.00